sensor_id;sensor_type;location;lat;lon;timestamp;P1;durP1;ratioP1;P2;durP2;ratioP2
77457;SDS011;66541;49.346;8.648;2023-04-29T00:00:44;5.22;;;1.50;;
77457;SDS011;66541;49.346;8.648;2023-04-29T00:03:09;5.78;;;1.52;;
77457;SDS011;66541;49.346;8.648;2023-04-29T00:05:34;5.20;;;1.45;;
77457;SDS011;66541;49.346;8.648;2023-04-29T00:08:00;4.93;;;1.40;;
77457;SDS011;66541;49.346;8.648;2023-04-29T00:10:25;4.93;;;1.58;;
77457;SDS011;66541;49.346;8.648;2023-04-29T00:12:50;5.38;;;1.65;;
77457;SDS011;66541;49.346;8.648;2023-04-29T00:15:16;4.68;;;1.60;;
77457;SDS011;66541;49.346;8.648;2023-04-29T00:17:41;5.63;;;1.35;;
77457;SDS011;66541;49.346;8.648;2023-04-29T00:20:07;6.35;;;1.35;;
77457;SDS011;66541;49.346;8.648;2023-04-29T00:22:34;6.15;;;2.20;;
77457;SDS011;66541;49.346;8.648;2023-04-29T00:24:59;7.63;;;1.77;;
77457;SDS011;66541;49.346;8.648;2023-04-29T00:27:24;6.30;;;1.70;;
77457;SDS011;66541;49.346;8.648;2023-04-29T00:29:50;5.97;;;1.60;;
77457;SDS011;66541;49.346;8.648;2023-04-29T00:32:15;6.10;;;1.60;;
77457;SDS011;66541;49.346;8.648;2023-04-29T00:34:41;5.45;;;1.73;;
77457;SDS011;66541;49.346;8.648;2023-04-29T00:37:06;7.05;;;1.95;;
77457;SDS011;66541;49.346;8.648;2023-04-29T00:39:31;6.13;;;1.52;;
77457;SDS011;66541;49.346;8.648;2023-04-29T00:41:57;6.78;;;1.70;;
77457;SDS011;66541;49.346;8.648;2023-04-29T00:44:23;8.05;;;2.05;;
77457;SDS011;66541;49.346;8.648;2023-04-29T00:46:48;6.50;;;1.92;;
77457;SDS011;66541;49.346;8.648;2023-04-29T00:49:13;5.78;;;1.92;;
77457;SDS011;66541;49.346;8.648;2023-04-29T00:51:39;5.88;;;1.73;;
77457;SDS011;66541;49.346;8.648;2023-04-29T00:54:05;6.50;;;1.50;;
77457;SDS011;66541;49.346;8.648;2023-04-29T00:56:31;6.85;;;1.77;;
77457;SDS011;66541;49.346;8.648;2023-04-29T00:58:58;5.75;;;1.70;;
77457;SDS011;66541;49.346;8.648;2023-04-29T01:01:23;5.30;;;1.73;;
77457;SDS011;66541;49.346;8.648;2023-04-29T01:03:49;6.50;;;2.33;;
77457;SDS011;66541;49.346;8.648;2023-04-29T01:06:19;6.90;;;2.10;;
77457;SDS011;66541;49.346;8.648;2023-04-29T01:08:51;6.32;;;1.80;;
77457;SDS011;66541;49.346;8.648;2023-04-29T01:13:59;5.78;;;1.90;;
77457;SDS011;66541;49.346;8.648;2023-04-29T01:16:29;6.38;;;2.28;;
77457;SDS011;66541;49.346;8.648;2023-04-29T01:19:01;6.97;;;2.45;;
77457;SDS011;66541;49.346;8.648;2023-04-29T01:21:29;5.75;;;1.83;;
77457;SDS011;66541;49.346;8.648;2023-04-29T01:23:55;6.40;;;2.20;;
77457;SDS011;66541;49.346;8.648;2023-04-29T01:26:21;6.88;;;1.98;;
77457;SDS011;66541;49.346;8.648;2023-04-29T01:31:23;6.80;;;1.95;;
77457;SDS011;66541;49.346;8.648;2023-04-29T01:38:57;7.38;;;2.13;;
77457;SDS011;66541;49.346;8.648;2023-04-29T01:44:12;6.00;;;2.00;;
77457;SDS011;66541;49.346;8.648;2023-04-29T01:46:40;6.03;;;1.95;;
77457;SDS011;66541;49.346;8.648;2023-04-29T01:49:07;6.93;;;1.90;;
77457;SDS011;66541;49.346;8.648;2023-04-29T01:51:33;8.65;;;2.17;;
77457;SDS011;66541;49.346;8.648;2023-04-29T01:53:58;5.63;;;2.03;;
77457;SDS011;66541;49.346;8.648;2023-04-29T01:56:23;5.93;;;2.15;;
77457;SDS011;66541;49.346;8.648;2023-04-29T01:58:49;5.72;;;1.92;;
77457;SDS011;66541;49.346;8.648;2023-04-29T02:01:14;6.32;;;1.73;;
77457;SDS011;66541;49.346;8.648;2023-04-29T02:03:39;7.90;;;2.05;;
77457;SDS011;66541;49.346;8.648;2023-04-29T02:06:05;6.57;;;1.60;;
77457;SDS011;66541;49.346;8.648;2023-04-29T02:08:31;6.78;;;2.30;;
77457;SDS011;66541;49.346;8.648;2023-04-29T02:10:57;8.80;;;1.98;;
77457;SDS011;66541;49.346;8.648;2023-04-29T02:13:23;6.63;;;1.80;;
77457;SDS011;66541;49.346;8.648;2023-04-29T02:15:49;5.97;;;1.80;;
77457;SDS011;66541;49.346;8.648;2023-04-29T02:18:14;5.43;;;1.65;;
77457;SDS011;66541;49.346;8.648;2023-04-29T02:20:40;6.25;;;1.80;;
77457;SDS011;66541;49.346;8.648;2023-04-29T02:23:05;6.60;;;2.15;;
77457;SDS011;66541;49.346;8.648;2023-04-29T02:25:31;6.63;;;2.38;;
77457;SDS011;66541;49.346;8.648;2023-04-29T02:27:56;9.85;;;2.35;;
77457;SDS011;66541;49.346;8.648;2023-04-29T02:30:21;6.35;;;2.10;;
77457;SDS011;66541;49.346;8.648;2023-04-29T02:32:46;7.82;;;1.98;;
77457;SDS011;66541;49.346;8.648;2023-04-29T02:35:12;7.43;;;1.98;;
77457;SDS011;66541;49.346;8.648;2023-04-29T02:37:37;10.25;;;3.10;;
77457;SDS011;66541;49.346;8.648;2023-04-29T02:40:03;8.85;;;2.42;;
77457;SDS011;66541;49.346;8.648;2023-04-29T02:42:29;9.98;;;3.00;;
77457;SDS011;66541;49.346;8.648;2023-04-29T02:44:54;12.25;;;3.45;;
77457;SDS011;66541;49.346;8.648;2023-04-29T02:47:19;10.75;;;3.35;;
77457;SDS011;66541;49.346;8.648;2023-04-29T02:49:44;12.48;;;2.70;;
77457;SDS011;66541;49.346;8.648;2023-04-29T02:52:10;14.43;;;4.05;;
77457;SDS011;66541;49.346;8.648;2023-04-29T02:54:36;12.45;;;2.63;;
77457;SDS011;66541;49.346;8.648;2023-04-29T02:57:02;12.18;;;4.00;;
77457;SDS011;66541;49.346;8.648;2023-04-29T02:59:27;15.45;;;4.28;;
77457;SDS011;66541;49.346;8.648;2023-04-29T03:01:52;11.93;;;4.07;;
77457;SDS011;66541;49.346;8.648;2023-04-29T03:04:18;12.20;;;3.85;;
77457;SDS011;66541;49.346;8.648;2023-04-29T03:06:44;12.15;;;3.70;;
77457;SDS011;66541;49.346;8.648;2023-04-29T03:09:09;10.93;;;4.18;;
77457;SDS011;66541;49.346;8.648;2023-04-29T03:11:36;9.82;;;3.50;;
77457;SDS011;66541;49.346;8.648;2023-04-29T03:14:02;10.80;;;3.40;;
77457;SDS011;66541;49.346;8.648;2023-04-29T03:16:27;9.27;;;3.63;;
77457;SDS011;66541;49.346;8.648;2023-04-29T03:18:53;8.77;;;3.13;;
77457;SDS011;66541;49.346;8.648;2023-04-29T03:21:18;9.05;;;3.15;;
77457;SDS011;66541;49.346;8.648;2023-04-29T03:23:43;9.35;;;2.67;;
77457;SDS011;66541;49.346;8.648;2023-04-29T03:26:09;8.48;;;2.42;;
77457;SDS011;66541;49.346;8.648;2023-04-29T03:28:34;7.93;;;2.40;;
77457;SDS011;66541;49.346;8.648;2023-04-29T03:30:59;7.60;;;2.47;;
77457;SDS011;66541;49.346;8.648;2023-04-29T03:33:25;8.57;;;2.40;;
77457;SDS011;66541;49.346;8.648;2023-04-29T03:35:50;6.65;;;2.20;;
77457;SDS011;66541;49.346;8.648;2023-04-29T03:38:16;7.07;;;2.10;;
77457;SDS011;66541;49.346;8.648;2023-04-29T03:40:41;6.30;;;1.85;;
77457;SDS011;66541;49.346;8.648;2023-04-29T03:43:06;7.85;;;2.20;;
77457;SDS011;66541;49.346;8.648;2023-04-29T03:45:33;7.63;;;2.10;;
77457;SDS011;66541;49.346;8.648;2023-04-29T03:47:58;6.68;;;2.20;;
77457;SDS011;66541;49.346;8.648;2023-04-29T03:50:24;9.05;;;2.42;;
77457;SDS011;66541;49.346;8.648;2023-04-29T03:52:50;6.65;;;2.00;;
77457;SDS011;66541;49.346;8.648;2023-04-29T03:55:15;6.57;;;2.33;;
77457;SDS011;66541;49.346;8.648;2023-04-29T03:57:41;6.25;;;1.95;;
77457;SDS011;66541;49.346;8.648;2023-04-29T04:00:06;5.63;;;1.63;;
77457;SDS011;66541;49.346;8.648;2023-04-29T04:02:32;5.53;;;1.80;;
77457;SDS011;66541;49.346;8.648;2023-04-29T04:04:59;7.72;;;1.98;;
77457;SDS011;66541;49.346;8.648;2023-04-29T04:07:24;6.90;;;2.22;;
77457;SDS011;66541;49.346;8.648;2023-04-29T04:09:49;5.88;;;1.92;;
77457;SDS011;66541;49.346;8.648;2023-04-29T04:12:15;6.72;;;1.80;;
77457;SDS011;66541;49.346;8.648;2023-04-29T04:14:40;7.50;;;2.05;;
77457;SDS011;66541;49.346;8.648;2023-04-29T04:17:06;7.00;;;1.90;;
77457;SDS011;66541;49.346;8.648;2023-04-29T04:19:31;7.78;;;2.22;;
77457;SDS011;66541;49.346;8.648;2023-04-29T04:21:57;6.35;;;2.22;;
77457;SDS011;66541;49.346;8.648;2023-04-29T04:24:22;8.75;;;2.67;;
77457;SDS011;66541;49.346;8.648;2023-04-29T04:26:48;7.53;;;2.90;;
77457;SDS011;66541;49.346;8.648;2023-04-29T04:29:13;7.53;;;2.72;;
77457;SDS011;66541;49.346;8.648;2023-04-29T04:31:38;8.32;;;3.10;;
77457;SDS011;66541;49.346;8.648;2023-04-29T04:34:04;8.07;;;2.88;;
77457;SDS011;66541;49.346;8.648;2023-04-29T04:36:29;6.78;;;2.75;;
77457;SDS011;66541;49.346;8.648;2023-04-29T04:38:55;10.10;;;2.58;;
77457;SDS011;66541;49.346;8.648;2023-04-29T04:41:20;6.78;;;2.42;;
77457;SDS011;66541;49.346;8.648;2023-04-29T04:43:45;7.93;;;2.85;;
77457;SDS011;66541;49.346;8.648;2023-04-29T04:46:14;8.32;;;2.53;;
77457;SDS011;66541;49.346;8.648;2023-04-29T04:48:40;7.28;;;2.70;;
77457;SDS011;66541;49.346;8.648;2023-04-29T04:51:15;7.60;;;2.70;;
77457;SDS011;66541;49.346;8.648;2023-04-29T04:53:40;7.75;;;3.00;;
77457;SDS011;66541;49.346;8.648;2023-04-29T04:56:05;8.70;;;2.92;;
77457;SDS011;66541;49.346;8.648;2023-04-29T04:58:31;6.32;;;2.10;;
77457;SDS011;66541;49.346;8.648;2023-04-29T05:00:57;7.25;;;2.50;;
77457;SDS011;66541;49.346;8.648;2023-04-29T05:03:23;6.90;;;2.45;;
77457;SDS011;66541;49.346;8.648;2023-04-29T05:05:54;6.35;;;2.15;;
77457;SDS011;66541;49.346;8.648;2023-04-29T05:08:20;7.82;;;2.20;;
77457;SDS011;66541;49.346;8.648;2023-04-29T05:10:47;6.78;;;2.75;;
77457;SDS011;66541;49.346;8.648;2023-04-29T05:13:12;7.00;;;2.40;;
77457;SDS011;66541;49.346;8.648;2023-04-29T05:15:37;6.45;;;2.13;;
77457;SDS011;66541;49.346;8.648;2023-04-29T05:18:03;6.70;;;2.42;;
77457;SDS011;66541;49.346;8.648;2023-04-29T05:20:28;7.78;;;2.25;;
77457;SDS011;66541;49.346;8.648;2023-04-29T05:22:53;6.80;;;2.33;;
77457;SDS011;66541;49.346;8.648;2023-04-29T05:25:18;6.68;;;2.20;;
77457;SDS011;66541;49.346;8.648;2023-04-29T05:27:44;8.00;;;2.63;;
77457;SDS011;66541;49.346;8.648;2023-04-29T05:30:09;10.77;;;2.20;;
77457;SDS011;66541;49.346;8.648;2023-04-29T05:32:35;7.00;;;2.08;;
77457;SDS011;66541;49.346;8.648;2023-04-29T05:35:00;8.02;;;2.33;;
77457;SDS011;66541;49.346;8.648;2023-04-29T05:37:25;6.10;;;1.88;;
77457;SDS011;66541;49.346;8.648;2023-04-29T05:39:54;6.53;;;2.13;;
77457;SDS011;66541;49.346;8.648;2023-04-29T05:42:20;6.68;;;1.75;;
77457;SDS011;66541;49.346;8.648;2023-04-29T05:44:45;6.47;;;2.25;;
77457;SDS011;66541;49.346;8.648;2023-04-29T05:47:11;5.45;;;1.73;;
77457;SDS011;66541;49.346;8.648;2023-04-29T05:49:36;6.32;;;1.65;;
77457;SDS011;66541;49.346;8.648;2023-04-29T05:52:03;5.95;;;1.55;;
77457;SDS011;66541;49.346;8.648;2023-04-29T05:54:30;5.65;;;1.70;;
77457;SDS011;66541;49.346;8.648;2023-04-29T05:56:59;6.13;;;1.52;;
77457;SDS011;66541;49.346;8.648;2023-04-29T05:59:30;5.20;;;1.35;;
77457;SDS011;66541;49.346;8.648;2023-04-29T06:01:56;5.70;;;1.50;;
77457;SDS011;66541;49.346;8.648;2023-04-29T06:04:22;8.40;;;1.67;;
77457;SDS011;66541;49.346;8.648;2023-04-29T06:06:48;6.80;;;1.88;;
77457;SDS011;66541;49.346;8.648;2023-04-29T06:09:14;5.07;;;1.48;;
77457;SDS011;66541;49.346;8.648;2023-04-29T06:11:40;4.97;;;1.50;;
77457;SDS011;66541;49.346;8.648;2023-04-29T06:14:05;4.93;;;1.45;;
77457;SDS011;66541;49.346;8.648;2023-04-29T06:16:30;5.53;;;1.65;;
77457;SDS011;66541;49.346;8.648;2023-04-29T06:18:56;4.45;;;1.17;;
77457;SDS011;66541;49.346;8.648;2023-04-29T06:21:21;6.25;;;1.33;;
77457;SDS011;66541;49.346;8.648;2023-04-29T06:23:49;5.18;;;1.10;;
77457;SDS011;66541;49.346;8.648;2023-04-29T06:26:14;5.82;;;1.20;;
77457;SDS011;66541;49.346;8.648;2023-04-29T06:28:39;5.28;;;1.13;;
77457;SDS011;66541;49.346;8.648;2023-04-29T06:31:05;5.80;;;1.20;;
77457;SDS011;66541;49.346;8.648;2023-04-29T06:33:30;5.90;;;1.02;;
77457;SDS011;66541;49.346;8.648;2023-04-29T06:35:58;5.72;;;1.65;;
77457;SDS011;66541;49.346;8.648;2023-04-29T06:38:23;4.47;;;1.30;;
77457;SDS011;66541;49.346;8.648;2023-04-29T06:40:48;5.63;;;1.38;;
77457;SDS011;66541;49.346;8.648;2023-04-29T06:43:13;7.35;;;2.40;;
77457;SDS011;66541;49.346;8.648;2023-04-29T06:45:39;7.28;;;2.30;;
77457;SDS011;66541;49.346;8.648;2023-04-29T06:48:04;6.28;;;1.67;;
77457;SDS011;66541;49.346;8.648;2023-04-29T06:50:30;10.60;;;3.80;;
77457;SDS011;66541;49.346;8.648;2023-04-29T06:52:55;8.38;;;2.70;;
77457;SDS011;66541;49.346;8.648;2023-04-29T06:55:20;7.18;;;2.40;;
77457;SDS011;66541;49.346;8.648;2023-04-29T06:57:46;6.15;;;1.83;;
77457;SDS011;66541;49.346;8.648;2023-04-29T07:00:11;5.70;;;1.40;;
77457;SDS011;66541;49.346;8.648;2023-04-29T07:02:37;6.63;;;2.33;;
77457;SDS011;66541;49.346;8.648;2023-04-29T07:05:03;5.80;;;1.60;;
77457;SDS011;66541;49.346;8.648;2023-04-29T07:07:29;5.75;;;1.40;;
77457;SDS011;66541;49.346;8.648;2023-04-29T07:09:54;4.70;;;1.25;;
77457;SDS011;66541;49.346;8.648;2023-04-29T07:12:20;6.50;;;1.52;;
77457;SDS011;66541;49.346;8.648;2023-04-29T07:14:45;5.53;;;1.52;;
77457;SDS011;66541;49.346;8.648;2023-04-29T07:17:11;6.28;;;1.70;;
77457;SDS011;66541;49.346;8.648;2023-04-29T07:19:36;5.85;;;1.83;;
77457;SDS011;66541;49.346;8.648;2023-04-29T07:22:04;7.00;;;1.80;;
77457;SDS011;66541;49.346;8.648;2023-04-29T07:24:29;6.35;;;1.83;;
77457;SDS011;66541;49.346;8.648;2023-04-29T07:26:54;6.57;;;1.92;;
77457;SDS011;66541;49.346;8.648;2023-04-29T07:29:20;8.50;;;2.80;;
77457;SDS011;66541;49.346;8.648;2023-04-29T07:31:45;7.75;;;2.97;;
77457;SDS011;66541;49.346;8.648;2023-04-29T07:34:10;10.90;;;3.22;;
77457;SDS011;66541;49.346;8.648;2023-04-29T07:36:36;10.57;;;3.88;;
77457;SDS011;66541;49.346;8.648;2023-04-29T07:39:01;9.35;;;4.00;;
77457;SDS011;66541;49.346;8.648;2023-04-29T07:41:27;10.68;;;4.07;;
77457;SDS011;66541;49.346;8.648;2023-04-29T07:43:52;9.85;;;4.13;;
77457;SDS011;66541;49.346;8.648;2023-04-29T07:46:18;10.15;;;3.60;;
77457;SDS011;66541;49.346;8.648;2023-04-29T07:48:43;11.85;;;3.80;;
77457;SDS011;66541;49.346;8.648;2023-04-29T07:51:12;11.05;;;4.38;;
77457;SDS011;66541;49.346;8.648;2023-04-29T07:53:38;10.13;;;4.03;;
77457;SDS011;66541;49.346;8.648;2023-04-29T07:56:07;11.63;;;4.35;;
77457;SDS011;66541;49.346;8.648;2023-04-29T07:58:32;11.25;;;4.18;;
77457;SDS011;66541;49.346;8.648;2023-04-29T08:01:04;10.98;;;4.72;;
77457;SDS011;66541;49.346;8.648;2023-04-29T08:03:34;11.57;;;4.38;;
77457;SDS011;66541;49.346;8.648;2023-04-29T08:05:59;10.32;;;3.65;;
77457;SDS011;66541;49.346;8.648;2023-04-29T08:08:26;10.38;;;3.97;;
77457;SDS011;66541;49.346;8.648;2023-04-29T08:10:51;9.77;;;3.85;;
77457;SDS011;66541;49.346;8.648;2023-04-29T08:13:16;10.38;;;4.00;;
77457;SDS011;66541;49.346;8.648;2023-04-29T08:15:42;10.80;;;3.63;;
77457;SDS011;66541;49.346;8.648;2023-04-29T08:18:07;12.82;;;4.07;;
77457;SDS011;66541;49.346;8.648;2023-04-29T08:20:32;9.40;;;3.33;;
77457;SDS011;66541;49.346;8.648;2023-04-29T08:22:58;10.20;;;3.50;;
77457;SDS011;66541;49.346;8.648;2023-04-29T08:25:24;11.35;;;3.67;;
77457;SDS011;66541;49.346;8.648;2023-04-29T08:27:50;11.63;;;4.47;;
77457;SDS011;66541;49.346;8.648;2023-04-29T08:30:16;11.20;;;3.80;;
77457;SDS011;66541;49.346;8.648;2023-04-29T08:32:41;10.60;;;3.45;;
77457;SDS011;66541;49.346;8.648;2023-04-29T08:35:07;10.98;;;4.60;;
77457;SDS011;66541;49.346;8.648;2023-04-29T08:37:32;11.25;;;4.10;;
77457;SDS011;66541;49.346;8.648;2023-04-29T08:39:58;11.15;;;3.75;;
77457;SDS011;66541;49.346;8.648;2023-04-29T08:42:33;10.38;;;3.83;;
77457;SDS011;66541;49.346;8.648;2023-04-29T08:45:00;12.48;;;4.43;;
77457;SDS011;66541;49.346;8.648;2023-04-29T08:47:29;10.60;;;3.90;;
77457;SDS011;66541;49.346;8.648;2023-04-29T08:49:55;11.88;;;4.38;;
77457;SDS011;66541;49.346;8.648;2023-04-29T08:52:20;12.75;;;5.40;;
77457;SDS011;66541;49.346;8.648;2023-04-29T08:54:46;13.38;;;4.85;;
77457;SDS011;66541;49.346;8.648;2023-04-29T08:57:11;11.15;;;4.40;;
77457;SDS011;66541;49.346;8.648;2023-04-29T08:59:37;10.65;;;4.18;;
77457;SDS011;66541;49.346;8.648;2023-04-29T09:02:02;11.48;;;4.05;;
77457;SDS011;66541;49.346;8.648;2023-04-29T09:04:29;10.73;;;4.30;;
77457;SDS011;66541;49.346;8.648;2023-04-29T09:07:02;11.98;;;3.95;;
77457;SDS011;66541;49.346;8.648;2023-04-29T09:09:28;11.32;;;4.57;;
77457;SDS011;66541;49.346;8.648;2023-04-29T09:11:53;11.70;;;3.80;;
77457;SDS011;66541;49.346;8.648;2023-04-29T09:14:19;11.13;;;4.00;;
77457;SDS011;66541;49.346;8.648;2023-04-29T09:16:46;11.02;;;4.03;;
77457;SDS011;66541;49.346;8.648;2023-04-29T09:19:26;9.75;;;3.63;;
77457;SDS011;66541;49.346;8.648;2023-04-29T09:21:54;11.55;;;3.88;;
77457;SDS011;66541;49.346;8.648;2023-04-29T09:24:23;10.48;;;4.13;;
77457;SDS011;66541;49.346;8.648;2023-04-29T09:26:50;11.73;;;4.18;;
77457;SDS011;66541;49.346;8.648;2023-04-29T09:29:16;12.20;;;4.20;;
77457;SDS011;66541;49.346;8.648;2023-04-29T09:31:42;11.27;;;4.05;;
77457;SDS011;66541;49.346;8.648;2023-04-29T09:34:08;9.15;;;3.97;;
77457;SDS011;66541;49.346;8.648;2023-04-29T09:36:39;11.95;;;4.38;;
77457;SDS011;66541;49.346;8.648;2023-04-29T09:41:42;10.10;;;3.88;;
77457;SDS011;66541;49.346;8.648;2023-04-29T09:49:32;10.10;;;3.78;;
77457;SDS011;66541;49.346;8.648;2023-04-29T09:52:02;12.13;;;4.20;;
77457;SDS011;66541;49.346;8.648;2023-04-29T09:54:28;10.63;;;3.63;;
77457;SDS011;66541;49.346;8.648;2023-04-29T09:56:56;9.43;;;3.45;;
77457;SDS011;66541;49.346;8.648;2023-04-29T09:59:22;10.45;;;4.13;;
77457;SDS011;66541;49.346;8.648;2023-04-29T10:01:48;11.95;;;3.92;;
77457;SDS011;66541;49.346;8.648;2023-04-29T10:04:15;9.27;;;3.35;;
77457;SDS011;66541;49.346;8.648;2023-04-29T10:06:41;11.55;;;4.28;;
77457;SDS011;66541;49.346;8.648;2023-04-29T10:09:09;9.50;;;3.13;;
77457;SDS011;66541;49.346;8.648;2023-04-29T10:11:40;9.00;;;3.38;;
77457;SDS011;66541;49.346;8.648;2023-04-29T10:14:05;9.68;;;3.33;;
77457;SDS011;66541;49.346;8.648;2023-04-29T10:16:33;9.45;;;3.28;;
77457;SDS011;66541;49.346;8.648;2023-04-29T10:18:59;10.15;;;3.70;;
77457;SDS011;66541;49.346;8.648;2023-04-29T10:21:28;9.40;;;3.25;;
77457;SDS011;66541;49.346;8.648;2023-04-29T10:23:55;8.82;;;3.03;;
77457;SDS011;66541;49.346;8.648;2023-04-29T10:26:21;9.82;;;2.72;;
77457;SDS011;66541;49.346;8.648;2023-04-29T10:28:51;9.23;;;2.47;;
77457;SDS011;66541;49.346;8.648;2023-04-29T10:31:21;9.32;;;2.38;;
77457;SDS011;66541;49.346;8.648;2023-04-29T10:33:53;8.75;;;3.13;;
77457;SDS011;66541;49.346;8.648;2023-04-29T10:36:20;8.63;;;2.28;;
77457;SDS011;66541;49.346;8.648;2023-04-29T10:38:47;9.32;;;2.67;;
77457;SDS011;66541;49.346;8.648;2023-04-29T10:41:18;8.18;;;2.30;;
77457;SDS011;66541;49.346;8.648;2023-04-29T10:43:44;8.98;;;2.60;;
77457;SDS011;66541;49.346;8.648;2023-04-29T10:46:17;8.52;;;2.30;;
77457;SDS011;66541;49.346;8.648;2023-04-29T10:48:43;7.90;;;2.60;;
77457;SDS011;66541;49.346;8.648;2023-04-29T10:51:08;10.40;;;2.90;;
77457;SDS011;66541;49.346;8.648;2023-04-29T10:53:34;9.65;;;2.78;;
77457;SDS011;66541;49.346;8.648;2023-04-29T10:56:03;9.65;;;2.83;;
77457;SDS011;66541;49.346;8.648;2023-04-29T10:58:35;7.55;;;1.90;;
77457;SDS011;66541;49.346;8.648;2023-04-29T11:01:11;7.85;;;2.00;;
77457;SDS011;66541;49.346;8.648;2023-04-29T11:06:25;8.65;;;2.90;;
77457;SDS011;66541;49.346;8.648;2023-04-29T11:11:39;8.57;;;2.53;;
77457;SDS011;66541;49.346;8.648;2023-04-29T11:14:08;8.82;;;2.65;;
77457;SDS011;66541;49.346;8.648;2023-04-29T11:16:35;8.80;;;3.13;;
77457;SDS011;66541;49.346;8.648;2023-04-29T11:19:07;9.45;;;3.25;;
77457;SDS011;66541;49.346;8.648;2023-04-29T11:21:33;9.77;;;3.20;;
77457;SDS011;66541;49.346;8.648;2023-04-29T11:23:59;9.13;;;2.67;;
77457;SDS011;66541;49.346;8.648;2023-04-29T11:26:26;10.15;;;2.50;;
77457;SDS011;66541;49.346;8.648;2023-04-29T11:28:51;8.88;;;2.70;;
77457;SDS011;66541;49.346;8.648;2023-04-29T11:31:17;8.75;;;2.42;;
77457;SDS011;66541;49.346;8.648;2023-04-29T11:33:42;8.65;;;2.30;;
77457;SDS011;66541;49.346;8.648;2023-04-29T11:36:08;7.70;;;2.03;;
77457;SDS011;66541;49.346;8.648;2023-04-29T11:38:35;7.43;;;2.45;;
77457;SDS011;66541;49.346;8.648;2023-04-29T11:41:03;8.52;;;2.55;;
77457;SDS011;66541;49.346;8.648;2023-04-29T11:43:29;8.10;;;2.40;;
77457;SDS011;66541;49.346;8.648;2023-04-29T11:45:54;7.40;;;2.22;;
77457;SDS011;66541;49.346;8.648;2023-04-29T11:48:20;8.00;;;2.45;;
77457;SDS011;66541;49.346;8.648;2023-04-29T11:50:49;8.82;;;2.40;;
77457;SDS011;66541;49.346;8.648;2023-04-29T11:53:18;8.85;;;2.72;;
77457;SDS011;66541;49.346;8.648;2023-04-29T11:55:44;8.95;;;2.28;;
77457;SDS011;66541;49.346;8.648;2023-04-29T11:58:10;7.28;;;2.05;;
77457;SDS011;66541;49.346;8.648;2023-04-29T12:00:35;6.53;;;2.03;;
77457;SDS011;66541;49.346;8.648;2023-04-29T12:03:01;7.05;;;1.98;;
77457;SDS011;66541;49.346;8.648;2023-04-29T12:05:26;8.85;;;2.60;;
77457;SDS011;66541;49.346;8.648;2023-04-29T12:07:51;7.93;;;2.28;;
77457;SDS011;66541;49.346;8.648;2023-04-29T12:10:19;12.77;;;2.83;;
77457;SDS011;66541;49.346;8.648;2023-04-29T12:12:45;8.55;;;2.85;;
77457;SDS011;66541;49.346;8.648;2023-04-29T12:15:11;7.70;;;2.47;;
77457;SDS011;66541;49.346;8.648;2023-04-29T12:17:37;9.63;;;2.92;;
77457;SDS011;66541;49.346;8.648;2023-04-29T12:20:03;9.18;;;2.80;;
77457;SDS011;66541;49.346;8.648;2023-04-29T12:22:32;6.78;;;2.17;;
77457;SDS011;66541;49.346;8.648;2023-04-29T12:24:57;8.93;;;2.78;;
77457;SDS011;66541;49.346;8.648;2023-04-29T12:27:22;8.75;;;2.38;;
77457;SDS011;66541;49.346;8.648;2023-04-29T12:29:50;9.23;;;2.55;;
77457;SDS011;66541;49.346;8.648;2023-04-29T12:32:16;8.93;;;2.60;;
77457;SDS011;66541;49.346;8.648;2023-04-29T12:34:44;7.07;;;2.38;;
77457;SDS011;66541;49.346;8.648;2023-04-29T12:37:10;8.18;;;2.38;;
77457;SDS011;66541;49.346;8.648;2023-04-29T12:39:38;8.15;;;2.22;;
77457;SDS011;66541;49.346;8.648;2023-04-29T12:42:03;8.75;;;1.85;;
77457;SDS011;66541;49.346;8.648;2023-04-29T12:44:35;6.70;;;1.70;;
77457;SDS011;66541;49.346;8.648;2023-04-29T12:47:08;5.35;;;1.70;;
77457;SDS011;66541;49.346;8.648;2023-04-29T12:49:37;6.93;;;2.25;;
77457;SDS011;66541;49.346;8.648;2023-04-29T12:52:02;6.63;;;1.80;;
77457;SDS011;66541;49.346;8.648;2023-04-29T12:54:28;7.07;;;1.80;;
77457;SDS011;66541;49.346;8.648;2023-04-29T12:56:53;6.55;;;2.03;;
77457;SDS011;66541;49.346;8.648;2023-04-29T12:59:19;6.03;;;1.70;;
77457;SDS011;66541;49.346;8.648;2023-04-29T13:01:44;6.78;;;1.85;;
77457;SDS011;66541;49.346;8.648;2023-04-29T13:04:10;7.70;;;1.60;;
77457;SDS011;66541;49.346;8.648;2023-04-29T13:06:36;6.28;;;1.42;;
77457;SDS011;66541;49.346;8.648;2023-04-29T13:09:06;6.00;;;1.50;;
77457;SDS011;66541;49.346;8.648;2023-04-29T13:11:35;6.13;;;1.50;;
77457;SDS011;66541;49.346;8.648;2023-04-29T13:14:00;6.50;;;1.52;;
77457;SDS011;66541;49.346;8.648;2023-04-29T13:16:26;6.40;;;1.50;;
77457;SDS011;66541;49.346;8.648;2023-04-29T13:18:51;6.45;;;1.90;;
77457;SDS011;66541;49.346;8.648;2023-04-29T13:21:17;7.45;;;1.83;;
77457;SDS011;66541;49.346;8.648;2023-04-29T13:23:42;7.50;;;2.05;;
77457;SDS011;66541;49.346;8.648;2023-04-29T13:26:07;6.45;;;1.80;;
77457;SDS011;66541;49.346;8.648;2023-04-29T13:28:33;6.65;;;2.53;;
77457;SDS011;66541;49.346;8.648;2023-04-29T13:30:59;10.02;;;2.08;;
77457;SDS011;66541;49.346;8.648;2023-04-29T13:33:24;6.65;;;1.67;;
77457;SDS011;66541;49.346;8.648;2023-04-29T13:35:49;6.63;;;1.98;;
77457;SDS011;66541;49.346;8.648;2023-04-29T13:38:15;7.72;;;1.73;;
77457;SDS011;66541;49.346;8.648;2023-04-29T13:40:41;7.63;;;2.17;;
77457;SDS011;66541;49.346;8.648;2023-04-29T13:43:06;7.55;;;1.92;;
77457;SDS011;66541;49.346;8.648;2023-04-29T13:45:32;6.40;;;1.50;;
77457;SDS011;66541;49.346;8.648;2023-04-29T13:47:59;6.82;;;1.70;;
77457;SDS011;66541;49.346;8.648;2023-04-29T13:50:24;7.05;;;1.60;;
77457;SDS011;66541;49.346;8.648;2023-04-29T13:52:50;6.13;;;1.35;;
77457;SDS011;66541;49.346;8.648;2023-04-29T13:55:15;10.25;;;1.88;;
77457;SDS011;66541;49.346;8.648;2023-04-29T13:57:40;7.70;;;1.50;;
77457;SDS011;66541;49.346;8.648;2023-04-29T14:00:06;6.05;;;1.40;;
77457;SDS011;66541;49.346;8.648;2023-04-29T14:02:33;5.88;;;1.60;;
77457;SDS011;66541;49.346;8.648;2023-04-29T14:04:58;6.55;;;1.58;;
77457;SDS011;66541;49.346;8.648;2023-04-29T14:07:23;6.03;;;1.70;;
77457;SDS011;66541;49.346;8.648;2023-04-29T14:09:49;5.32;;;1.30;;
77457;SDS011;66541;49.346;8.648;2023-04-29T14:12:14;6.50;;;1.88;;
77457;SDS011;66541;49.346;8.648;2023-04-29T14:14:40;5.50;;;1.30;;
77457;SDS011;66541;49.346;8.648;2023-04-29T14:17:05;6.35;;;1.35;;
77457;SDS011;66541;49.346;8.648;2023-04-29T14:19:31;6.22;;;1.40;;
77457;SDS011;66541;49.346;8.648;2023-04-29T14:21:56;5.00;;;1.13;;
77457;SDS011;66541;49.346;8.648;2023-04-29T14:24:21;6.05;;;1.48;;
77457;SDS011;66541;49.346;8.648;2023-04-29T14:26:47;7.43;;;2.22;;
77457;SDS011;66541;49.346;8.648;2023-04-29T14:29:12;6.05;;;1.75;;
77457;SDS011;66541;49.346;8.648;2023-04-29T14:31:37;7.25;;;1.30;;
77457;SDS011;66541;49.346;8.648;2023-04-29T14:34:03;6.05;;;1.45;;
77457;SDS011;66541;49.346;8.648;2023-04-29T14:36:28;5.75;;;1.40;;
77457;SDS011;66541;49.346;8.648;2023-04-29T14:38:56;8.93;;;1.50;;
77457;SDS011;66541;49.346;8.648;2023-04-29T14:41:21;5.15;;;1.20;;
77457;SDS011;66541;49.346;8.648;2023-04-29T14:43:47;4.97;;;1.30;;
77457;SDS011;66541;49.346;8.648;2023-04-29T14:46:12;5.93;;;1.63;;
77457;SDS011;66541;49.346;8.648;2023-04-29T14:48:37;5.80;;;1.45;;
77457;SDS011;66541;49.346;8.648;2023-04-29T14:51:03;6.68;;;1.60;;
77457;SDS011;66541;49.346;8.648;2023-04-29T14:53:28;5.32;;;1.45;;
77457;SDS011;66541;49.346;8.648;2023-04-29T14:55:54;7.13;;;1.83;;
77457;SDS011;66541;49.346;8.648;2023-04-29T14:58:19;7.70;;;1.35;;
77457;SDS011;66541;49.346;8.648;2023-04-29T15:00:45;6.13;;;1.35;;
77457;SDS011;66541;49.346;8.648;2023-04-29T15:03:10;5.18;;;1.40;;
77457;SDS011;66541;49.346;8.648;2023-04-29T15:05:36;6.63;;;1.77;;